sensor_id;sensor_type;location;lat;lon;timestamp;P1;durP1;ratioP1;P2;durP2;ratioP2
42246;SDS011;27913;42.722;23.268;2024-03-25T18:34:58;3.28;;;1.20;;
42246;SDS011;27913;42.722;23.268;2024-03-25T18:37:24;3.92;;;1.23;;
42246;SDS011;27913;42.722;23.268;2024-03-25T18:39:50;4.13;;;1.08;;
42246;SDS011;27913;42.722;23.268;2024-03-25T18:42:15;4.18;;;1.48;;
42246;SDS011;27913;42.722;23.268;2024-03-25T18:44:41;5.63;;;1.67;;
42246;SDS011;27913;42.722;23.268;2024-03-25T18:47:09;5.72;;;1.38;;
42246;SDS011;27913;42.722;23.268;2024-03-25T18:49:35;3.33;;;1.30;;
42246;SDS011;27913;42.722;23.268;2024-03-25T18:52:01;3.72;;;1.33;;
42246;SDS011;27913;42.722;23.268;2024-03-25T18:54:29;5.18;;;1.30;;
42246;SDS011;27913;42.722;23.268;2024-03-25T18:56:55;3.20;;;1.30;;
42246;SDS011;27913;42.722;23.268;2024-03-25T18:59:20;3.30;;;1.10;;
42246;SDS011;27913;42.722;23.268;2024-03-25T19:01:46;3.28;;;1.52;;
42246;SDS011;27913;42.722;23.268;2024-03-25T19:04:11;3.80;;;1.05;;
42246;SDS011;27913;42.722;23.268;2024-03-25T19:06:37;3.63;;;0.93;;
42246;SDS011;27913;42.722;23.268;2024-03-25T19:09:02;2.70;;;0.88;;
42246;SDS011;27913;42.722;23.268;2024-03-25T19:11:28;3.88;;;1.30;;
42246;SDS011;27913;42.722;23.268;2024-03-25T19:13:54;2.63;;;0.90;;
42246;SDS011;27913;42.722;23.268;2024-03-25T19:16:20;3.35;;;1.10;;
42246;SDS011;27913;42.722;23.268;2024-03-25T19:18:46;8.32;;;1.10;;
42246;SDS011;27913;42.722;23.268;2024-03-25T19:21:11;1.65;;;0.80;;
42246;SDS011;27913;42.722;23.268;2024-03-25T19:23:39;2.78;;;1.10;;
42246;SDS011;27913;42.722;23.268;2024-03-25T19:26:05;2.50;;;1.00;;
42246;SDS011;27913;42.722;23.268;2024-03-25T19:28:30;2.25;;;1.20;;
42246;SDS011;27913;42.722;23.268;2024-03-25T19:30:56;2.55;;;0.80;;
42246;SDS011;27913;42.722;23.268;2024-03-25T19:33:22;2.88;;;0.90;;
42246;SDS011;27913;42.722;23.268;2024-03-25T19:35:47;2.40;;;0.65;;
42246;SDS011;27913;42.722;23.268;2024-03-25T19:38:13;15.27;;;5.93;;
42246;SDS011;27913;42.722;23.268;2024-03-25T19:40:38;18.27;;;5.63;;
42246;SDS011;27913;42.722;23.268;2024-03-25T19:43:04;17.40;;;4.82;;
42246;SDS011;27913;42.722;23.268;2024-03-25T19:45:29;11.85;;;4.32;;
42246;SDS011;27913;42.722;23.268;2024-03-25T19:47:55;13.15;;;5.57;;
42246;SDS011;27913;42.722;23.268;2024-03-25T19:50:21;15.07;;;5.38;;
42246;SDS011;27913;42.722;23.268;2024-03-25T19:52:46;11.10;;;4.50;;
42246;SDS011;27913;42.722;23.268;2024-03-25T19:55:12;16.25;;;6.40;;
42246;SDS011;27913;42.722;23.268;2024-03-25T19:57:38;18.17;;;7.13;;
42246;SDS011;27913;42.722;23.268;2024-03-25T20:00:04;18.08;;;7.03;;
42246;SDS011;27913;42.722;23.268;2024-03-25T20:02:31;15.18;;;5.65;;
42246;SDS011;27913;42.722;23.268;2024-03-25T20:04:57;19.58;;;4.78;;
42246;SDS011;27913;42.722;23.268;2024-03-25T20:07:22;11.15;;;3.80;;
42246;SDS011;27913;42.722;23.268;2024-03-25T20:09:48;8.38;;;3.25;;
42246;SDS011;27913;42.722;23.268;2024-03-25T20:12:13;7.72;;;2.63;;
42246;SDS011;27913;42.722;23.268;2024-03-25T20:14:39;7.50;;;2.53;;
42246;SDS011;27913;42.722;23.268;2024-03-25T20:17:04;5.85;;;2.17;;
42246;SDS011;27913;42.722;23.268;2024-03-25T20:19:30;6.63;;;2.38;;
42246;SDS011;27913;42.722;23.268;2024-03-25T20:21:56;6.15;;;1.98;;
42246;SDS011;27913;42.722;23.268;2024-03-25T20:24:22;5.30;;;2.28;;
42246;SDS011;27913;42.722;23.268;2024-03-25T20:26:47;4.97;;;2.10;;
42246;SDS011;27913;42.722;23.268;2024-03-25T20:29:14;9.15;;;2.08;;
42246;SDS011;27913;42.722;23.268;2024-03-25T20:31:39;5.95;;;2.03;;
42246;SDS011;27913;42.722;23.268;2024-03-25T20:34:05;6.95;;;2.25;;
42246;SDS011;27913;42.722;23.268;2024-03-25T20:36:30;12.00;;;4.63;;
42246;SDS011;27913;42.722;23.268;2024-03-25T20:38:56;9.80;;;3.65;;
42246;SDS011;27913;42.722;23.268;2024-03-25T20:41:22;10.80;;;4.07;;
42246;SDS011;27913;42.722;23.268;2024-03-25T20:43:48;11.65;;;4.10;;
42246;SDS011;27913;42.722;23.268;2024-03-25T20:46:13;13.07;;;3.85;;
42246;SDS011;27913;42.722;23.268;2024-03-25T20:48:41;8.65;;;3.22;;
42246;SDS011;27913;42.722;23.268;2024-03-25T20:51:07;9.43;;;2.53;;
42246;SDS011;27913;42.722;23.268;2024-03-25T20:53:33;6.15;;;2.33;;
42246;SDS011;27913;42.722;23.268;2024-03-25T20:55:59;12.77;;;3.00;;
42246;SDS011;27913;42.722;23.268;2024-03-25T20:58:24;7.18;;;2.55;;
42246;SDS011;27913;42.722;23.268;2024-03-25T21:00:50;9.43;;;3.47;;
42246;SDS011;27913;42.722;23.268;2024-03-25T21:03:15;6.78;;;2.47;;
42246;SDS011;27913;42.722;23.268;2024-03-25T21:05:41;6.90;;;2.28;;
42246;SDS011;27913;42.722;23.268;2024-03-25T21:08:17;6.38;;;2.70;;
42246;SDS011;27913;42.722;23.268;2024-03-25T21:10:42;10.88;;;2.92;;
42246;SDS011;27913;42.722;23.268;2024-03-25T21:13:08;9.23;;;2.53;;
42246;SDS011;27913;42.722;23.268;2024-03-25T21:15:34;12.77;;;4.43;;
42246;SDS011;27913;42.722;23.268;2024-03-25T21:17:59;11.15;;;3.97;;
42246;SDS011;27913;42.722;23.268;2024-03-25T21:20:25;12.00;;;4.20;;
42246;SDS011;27913;42.722;23.268;2024-03-25T21:22:50;10.55;;;3.97;;
42246;SDS011;27913;42.722;23.268;2024-03-25T21:25:17;9.38;;;3.33;;
42246;SDS011;27913;42.722;23.268;2024-03-25T21:27:42;12.35;;;4.35;;
42246;SDS011;27913;42.722;23.268;2024-03-25T21:30:08;13.52;;;5.15;;
42246;SDS011;27913;42.722;23.268;2024-03-25T21:32:33;22.92;;;7.75;;
42246;SDS011;27913;42.722;23.268;2024-03-25T21:34:59;23.75;;;8.52;;
42246;SDS011;27913;42.722;23.268;2024-03-25T21:37:24;15.30;;;5.25;;
42246;SDS011;27913;42.722;23.268;2024-03-25T21:39:50;17.33;;;6.68;;
42246;SDS011;27913;42.722;23.268;2024-03-25T21:42:16;11.48;;;4.38;;
42246;SDS011;27913;42.722;23.268;2024-03-25T21:44:41;12.40;;;4.18;;
42246;SDS011;27913;42.722;23.268;2024-03-25T21:47:07;13.25;;;4.50;;
42246;SDS011;27913;42.722;23.268;2024-03-25T21:49:33;12.05;;;4.00;;
42246;SDS011;27913;42.722;23.268;2024-03-25T21:51:58;11.23;;;4.38;;
42246;SDS011;27913;42.722;23.268;2024-03-25T21:54:24;13.93;;;5.63;;
42246;SDS011;27913;42.722;23.268;2024-03-25T21:56:50;15.48;;;5.45;;
42246;SDS011;27913;42.722;23.268;2024-03-25T21:59:15;14.27;;;4.72;;
42246;SDS011;27913;42.722;23.268;2024-03-25T22:01:41;14.57;;;4.50;;
42246;SDS011;27913;42.722;23.268;2024-03-25T22:04:08;10.05;;;3.65;;
42246;SDS011;27913;42.722;23.268;2024-03-25T22:06:34;9.18;;;3.80;;
42246;SDS011;27913;42.722;23.268;2024-03-25T22:08:59;11.27;;;4.55;;
42246;SDS011;27913;42.722;23.268;2024-03-25T22:11:25;8.82;;;3.90;;
42246;SDS011;27913;42.722;23.268;2024-03-25T22:13:50;11.25;;;3.70;;
42246;SDS011;27913;42.722;23.268;2024-03-25T22:16:16;10.75;;;3.60;;
42246;SDS011;27913;42.722;23.268;2024-03-25T22:18:42;8.48;;;3.20;;
42246;SDS011;27913;42.722;23.268;2024-03-25T22:21:07;8.45;;;2.97;;
42246;SDS011;27913;42.722;23.268;2024-03-25T22:23:33;7.50;;;2.83;;
42246;SDS011;27913;42.722;23.268;2024-03-25T22:25:59;9.15;;;3.50;;
42246;SDS011;27913;42.722;23.268;2024-03-25T22:28:25;8.00;;;3.38;;
42246;SDS011;27913;42.722;23.268;2024-03-25T22:30:57;9.38;;;3.20;;
42246;SDS011;27913;42.722;23.268;2024-03-25T22:33:27;11.68;;;3.90;;
42246;SDS011;27913;42.722;23.268;2024-03-25T22:35:56;7.72;;;3.05;;
42246;SDS011;27913;42.722;23.268;2024-03-25T22:38:23;7.55;;;2.90;;
42246;SDS011;27913;42.722;23.268;2024-03-25T22:40:49;8.40;;;2.95;;
42246;SDS011;27913;42.722;23.268;2024-03-25T22:43:17;10.27;;;2.72;;
42246;SDS011;27913;42.722;23.268;2024-03-25T22:45:53;12.43;;;3.10;;
42246;SDS011;27913;42.722;23.268;2024-03-25T22:48:25;8.38;;;2.60;;
42246;SDS011;27913;42.722;23.268;2024-03-25T22:50:59;9.55;;;3.53;;
42246;SDS011;27913;42.722;23.268;2024-03-25T22:53:25;10.02;;;3.28;;
42246;SDS011;27913;42.722;23.268;2024-03-25T22:56:01;9.30;;;3.35;;
42246;SDS011;27913;42.722;23.268;2024-03-25T22:58:28;11.77;;;3.63;;
42246;SDS011;27913;42.722;23.268;2024-03-25T23:00:54;8.93;;;2.85;;
42246;SDS011;27913;42.722;23.268;2024-03-25T23:03:20;10.88;;;4.40;;
42246;SDS011;27913;42.722;23.268;2024-03-25T23:05:54;13.85;;;5.13;;
42246;SDS011;27913;42.722;23.268;2024-03-25T23:08:21;10.25;;;4.15;;
42246;SDS011;27913;42.722;23.268;2024-03-25T23:10:47;16.52;;;5.30;;
42246;SDS011;27913;42.722;23.268;2024-03-25T23:13:13;13.30;;;5.43;;
42246;SDS011;27913;42.722;23.268;2024-03-25T23:15:38;14.40;;;5.75;;
42246;SDS011;27913;42.722;23.268;2024-03-25T23:18:04;11.35;;;3.80;;
42246;SDS011;27913;42.722;23.268;2024-03-25T23:20:34;9.20;;;3.38;;
42246;SDS011;27913;42.722;23.268;2024-03-25T23:23:04;9.57;;;3.47;;
42246;SDS011;27913;42.722;23.268;2024-03-25T23:25:30;10.65;;;3.25;;
42246;SDS011;27913;42.722;23.268;2024-03-25T23:27:56;9.38;;;3.60;;
42246;SDS011;27913;42.722;23.268;2024-03-25T23:30:21;9.15;;;2.78;;
42246;SDS011;27913;42.722;23.268;2024-03-25T23:32:47;9.05;;;3.15;;
42246;SDS011;27913;42.722;23.268;2024-03-25T23:35:12;8.10;;;2.50;;
42246;SDS011;27913;42.722;23.268;2024-03-25T23:37:38;8.98;;;3.88;;
42246;SDS011;27913;42.722;23.268;2024-03-25T23:40:05;9.20;;;3.42;;
42246;SDS011;27913;42.722;23.268;2024-03-25T23:42:32;10.80;;;3.78;;
42246;SDS011;27913;42.722;23.268;2024-03-25T23:44:58;11.57;;;3.90;;
42246;SDS011;27913;42.722;23.268;2024-03-25T23:47:24;11.05;;;3.83;;
42246;SDS011;27913;42.722;23.268;2024-03-25T23:49:49;12.27;;;3.75;;
42246;SDS011;27913;42.722;23.268;2024-03-25T23:52:15;16.80;;;4.28;;
42246;SDS011;27913;42.722;23.268;2024-03-25T23:54:40;15.23;;;5.53;;
42246;SDS011;27913;42.722;23.268;2024-03-25T23:57:06;11.35;;;5.28;;
42246;SDS011;27913;42.722;23.268;2024-03-25T23:59:33;17.90;;;5.88;;
